sensor_id;sensor_type;location;lat;lon;timestamp;P1;durP1;ratioP1;P2;durP2;ratioP2
23802;SDS011;12082;51.786;6.018;2022-08-19T00:01:35;13.77;;;10.60;;
23802;SDS011;12082;51.786;6.018;2022-08-19T00:04:04;11.10;;;9.30;;
23802;SDS011;12082;51.786;6.018;2022-08-19T00:06:31;10.30;;;9.07;;
23802;SDS011;12082;51.786;6.018;2022-08-19T00:08:58;15.93;;;11.13;;
23802;SDS011;12082;51.786;6.018;2022-08-19T00:11:27;14.87;;;10.57;;
23802;SDS011;12082;51.786;6.018;2022-08-19T00:13:53;12.97;;;10.83;;
23802;SDS011;12082;51.786;6.018;2022-08-19T00:16:21;16.10;;;11.43;;
23802;SDS011;12082;51.786;6.018;2022-08-19T00:18:48;16.57;;;11.77;;
23802;SDS011;12082;51.786;6.018;2022-08-19T00:21:13;16.10;;;11.40;;
23802;SDS011;12082;51.786;6.018;2022-08-19T00:23:39;12.30;;;10.77;;
23802;SDS011;12082;51.786;6.018;2022-08-19T00:26:06;13.90;;;11.17;;
23802;SDS011;12082;51.786;6.018;2022-08-19T00:28:32;14.40;;;11.87;;
23802;SDS011;12082;51.786;6.018;2022-08-19T00:31:00;13.77;;;10.93;;
23802;SDS011;12082;51.786;6.018;2022-08-19T00:33:27;13.77;;;11.13;;
23802;SDS011;12082;51.786;6.018;2022-08-19T00:35:55;13.33;;;10.07;;
23802;SDS011;12082;51.786;6.018;2022-08-19T00:38:21;11.73;;;10.20;;
23802;SDS011;12082;51.786;6.018;2022-08-19T00:40:47;12.37;;;9.63;;
23802;SDS011;12082;51.786;6.018;2022-08-19T00:43:14;12.77;;;9.50;;
23802;SDS011;12082;51.786;6.018;2022-08-19T00:45:44;15.27;;;10.87;;
23802;SDS011;12082;51.786;6.018;2022-08-19T00:48:10;15.60;;;11.33;;
23802;SDS011;12082;51.786;6.018;2022-08-19T00:50:36;13.93;;;10.87;;
23802;SDS011;12082;51.786;6.018;2022-08-19T00:53:07;13.27;;;11.43;;
23802;SDS011;12082;51.786;6.018;2022-08-19T00:55:35;12.90;;;10.70;;
23802;SDS011;12082;51.786;6.018;2022-08-19T00:58:05;13.67;;;11.23;;
23802;SDS011;12082;51.786;6.018;2022-08-19T01:00:35;14.70;;;11.77;;
23802;SDS011;12082;51.786;6.018;2022-08-19T01:03:06;16.30;;;12.00;;
23802;SDS011;12082;51.786;6.018;2022-08-19T01:05:33;13.80;;;11.43;;
23802;SDS011;12082;51.786;6.018;2022-08-19T01:08:01;13.23;;;11.20;;
23802;SDS011;12082;51.786;6.018;2022-08-19T01:10:29;14.07;;;11.67;;
23802;SDS011;12082;51.786;6.018;2022-08-19T01:12:58;13.80;;;11.37;;
23802;SDS011;12082;51.786;6.018;2022-08-19T01:15:27;15.97;;;12.53;;
23802;SDS011;12082;51.786;6.018;2022-08-19T01:18:06;14.23;;;10.70;;
23802;SDS011;12082;51.786;6.018;2022-08-19T01:20:35;17.93;;;10.77;;
23802;SDS011;12082;51.786;6.018;2022-08-19T01:23:02;12.13;;;9.50;;
23802;SDS011;12082;51.786;6.018;2022-08-19T01:25:30;18.17;;;12.03;;
23802;SDS011;12082;51.786;6.018;2022-08-19T01:27:59;13.00;;;10.63;;
23802;SDS011;12082;51.786;6.018;2022-08-19T01:30:28;15.00;;;10.00;;
23802;SDS011;12082;51.786;6.018;2022-08-19T01:32:57;12.97;;;9.73;;
23802;SDS011;12082;51.786;6.018;2022-08-19T01:35:25;12.57;;;10.20;;
23802;SDS011;12082;51.786;6.018;2022-08-19T01:37:55;13.47;;;10.70;;
23802;SDS011;12082;51.786;6.018;2022-08-19T01:40:25;12.30;;;10.13;;
23802;SDS011;12082;51.786;6.018;2022-08-19T01:42:54;12.90;;;10.23;;
23802;SDS011;12082;51.786;6.018;2022-08-19T01:45:20;13.47;;;9.67;;
23802;SDS011;12082;51.786;6.018;2022-08-19T01:47:47;11.57;;;9.77;;
23802;SDS011;12082;51.786;6.018;2022-08-19T01:50:13;13.37;;;10.43;;
23802;SDS011;12082;51.786;6.018;2022-08-19T01:52:40;14.47;;;11.57;;
23802;SDS011;12082;51.786;6.018;2022-08-19T01:55:08;16.47;;;11.87;;
23802;SDS011;12082;51.786;6.018;2022-08-19T01:57:36;15.17;;;10.83;;
23802;SDS011;12082;51.786;6.018;2022-08-19T02:00:05;16.13;;;11.60;;
23802;SDS011;12082;51.786;6.018;2022-08-19T02:02:33;17.23;;;10.73;;
23802;SDS011;12082;51.786;6.018;2022-08-19T02:04:58;14.90;;;10.17;;
23802;SDS011;12082;51.786;6.018;2022-08-19T02:07:24;13.70;;;11.13;;
23802;SDS011;12082;51.786;6.018;2022-08-19T02:09:50;16.43;;;10.80;;
23802;SDS011;12082;51.786;6.018;2022-08-19T02:12:15;16.03;;;11.63;;
23802;SDS011;12082;51.786;6.018;2022-08-19T02:14:41;13.50;;;10.87;;
23802;SDS011;12082;51.786;6.018;2022-08-19T02:17:08;14.37;;;9.60;;
23802;SDS011;12082;51.786;6.018;2022-08-19T02:19:33;14.97;;;11.00;;
23802;SDS011;12082;51.786;6.018;2022-08-19T02:21:59;12.67;;;10.63;;
23802;SDS011;12082;51.786;6.018;2022-08-19T02:24:25;19.17;;;13.37;;
23802;SDS011;12082;51.786;6.018;2022-08-19T02:26:51;17.03;;;13.90;;
23802;SDS011;12082;51.786;6.018;2022-08-19T02:29:17;19.20;;;13.90;;
23802;SDS011;12082;51.786;6.018;2022-08-19T02:31:43;31.47;;;20.57;;
23802;SDS011;12082;51.786;6.018;2022-08-19T02:34:09;35.20;;;22.57;;
23802;SDS011;12082;51.786;6.018;2022-08-19T02:36:34;32.07;;;20.00;;
23802;SDS011;12082;51.786;6.018;2022-08-19T02:39:00;31.80;;;20.67;;
23802;SDS011;12082;51.786;6.018;2022-08-19T02:41:26;34.50;;;21.37;;
23802;SDS011;12082;51.786;6.018;2022-08-19T02:43:56;30.90;;;19.80;;
23802;SDS011;12082;51.786;6.018;2022-08-19T02:46:27;28.83;;;19.63;;
23802;SDS011;12082;51.786;6.018;2022-08-19T02:48:55;21.53;;;15.57;;
23802;SDS011;12082;51.786;6.018;2022-08-19T02:51:33;19.40;;;14.30;;
23802;SDS011;12082;51.786;6.018;2022-08-19T02:54:02;17.17;;;12.97;;
23802;SDS011;12082;51.786;6.018;2022-08-19T02:56:29;18.40;;;11.27;;
23802;SDS011;12082;51.786;6.018;2022-08-19T02:58:55;17.20;;;12.20;;
23802;SDS011;12082;51.786;6.018;2022-08-19T03:01:25;16.20;;;11.53;;
23802;SDS011;12082;51.786;6.018;2022-08-19T03:03:54;17.70;;;12.73;;
23802;SDS011;12082;51.786;6.018;2022-08-19T03:06:21;15.90;;;12.07;;
23802;SDS011;12082;51.786;6.018;2022-08-19T03:08:47;17.53;;;12.47;;
23802;SDS011;12082;51.786;6.018;2022-08-19T03:11:23;21.00;;;14.63;;
23802;SDS011;12082;51.786;6.018;2022-08-19T03:13:51;22.23;;;16.03;;
23802;SDS011;12082;51.786;6.018;2022-08-19T03:16:19;26.47;;;17.57;;
23802;SDS011;12082;51.786;6.018;2022-08-19T03:18:47;27.10;;;18.13;;
23802;SDS011;12082;51.786;6.018;2022-08-19T03:21:20;26.73;;;18.50;;
23802;SDS011;12082;51.786;6.018;2022-08-19T03:23:49;22.70;;;15.53;;
23802;SDS011;12082;51.786;6.018;2022-08-19T03:26:15;25.13;;;16.53;;
23802;SDS011;12082;51.786;6.018;2022-08-19T03:28:41;23.40;;;15.33;;
23802;SDS011;12082;51.786;6.018;2022-08-19T03:31:14;22.67;;;15.80;;
23802;SDS011;12082;51.786;6.018;2022-08-19T03:33:42;25.93;;;17.07;;
23802;SDS011;12082;51.786;6.018;2022-08-19T03:36:10;23.43;;;16.67;;
23802;SDS011;12082;51.786;6.018;2022-08-19T03:38:45;22.07;;;16.37;;
23802;SDS011;12082;51.786;6.018;2022-08-19T03:41:16;17.03;;;12.90;;
23802;SDS011;12082;51.786;6.018;2022-08-19T03:43:44;18.80;;;13.17;;
23802;SDS011;12082;51.786;6.018;2022-08-19T03:46:14;17.13;;;13.43;;
23802;SDS011;12082;51.786;6.018;2022-08-19T03:48:42;21.60;;;13.80;;
23802;SDS011;12082;51.786;6.018;2022-08-19T03:51:15;25.60;;;14.97;;
23802;SDS011;12082;51.786;6.018;2022-08-19T03:53:42;23.00;;;15.47;;
23802;SDS011;12082;51.786;6.018;2022-08-19T03:56:09;19.93;;;13.77;;
23802;SDS011;12082;51.786;6.018;2022-08-19T03:58:34;19.67;;;13.33;;
23802;SDS011;12082;51.786;6.018;2022-08-19T04:01:06;17.13;;;12.17;;
23802;SDS011;12082;51.786;6.018;2022-08-19T04:03:36;16.63;;;12.17;;
23802;SDS011;12082;51.786;6.018;2022-08-19T04:08:42;20.17;;;11.30;;
23802;SDS011;12082;51.786;6.018;2022-08-19T04:11:09;16.00;;;12.20;;
23802;SDS011;12082;51.786;6.018;2022-08-19T04:13:36;21.87;;;13.43;;
23802;SDS011;12082;51.786;6.018;2022-08-19T04:16:02;17.90;;;12.43;;
23802;SDS011;12082;51.786;6.018;2022-08-19T04:18:29;21.83;;;14.70;;
23802;SDS011;12082;51.786;6.018;2022-08-19T04:20:55;33.67;;;20.63;;
23802;SDS011;12082;51.786;6.018;2022-08-19T04:23:21;42.27;;;24.77;;
23802;SDS011;12082;51.786;6.018;2022-08-19T04:25:47;42.20;;;23.30;;
23802;SDS011;12082;51.786;6.018;2022-08-19T04:28:13;41.70;;;23.57;;
23802;SDS011;12082;51.786;6.018;2022-08-19T04:30:47;44.23;;;24.97;;
23802;SDS011;12082;51.786;6.018;2022-08-19T04:33:15;42.63;;;23.47;;
23802;SDS011;12082;51.786;6.018;2022-08-19T04:35:44;32.13;;;19.67;;
23802;SDS011;12082;51.786;6.018;2022-08-19T04:38:12;26.77;;;15.60;;
23802;SDS011;12082;51.786;6.018;2022-08-19T04:40:42;22.57;;;14.47;;
23802;SDS011;12082;51.786;6.018;2022-08-19T04:43:28;22.70;;;14.70;;
23802;SDS011;12082;51.786;6.018;2022-08-19T04:45:54;29.10;;;17.87;;
23802;SDS011;12082;51.786;6.018;2022-08-19T04:48:21;21.30;;;15.00;;
23802;SDS011;12082;51.786;6.018;2022-08-19T04:50:55;22.57;;;15.73;;
23802;SDS011;12082;51.786;6.018;2022-08-19T04:55:58;29.77;;;18.33;;
23802;SDS011;12082;51.786;6.018;2022-08-19T04:58:26;33.90;;;19.77;;
23802;SDS011;12082;51.786;6.018;2022-08-19T05:00:53;33.73;;;20.37;;
23802;SDS011;12082;51.786;6.018;2022-08-19T05:03:19;38.07;;;23.07;;
23802;SDS011;12082;51.786;6.018;2022-08-19T05:05:45;38.20;;;22.53;;
23802;SDS011;12082;51.786;6.018;2022-08-19T05:08:16;41.83;;;23.93;;
23802;SDS011;12082;51.786;6.018;2022-08-19T05:10:45;39.93;;;23.33;;
23802;SDS011;12082;51.786;6.018;2022-08-19T05:13:12;56.13;;;29.17;;
23802;SDS011;12082;51.786;6.018;2022-08-19T05:15:38;51.30;;;27.77;;
23802;SDS011;12082;51.786;6.018;2022-08-19T05:18:03;56.00;;;26.50;;
23802;SDS011;12082;51.786;6.018;2022-08-19T05:20:48;44.70;;;25.77;;
23802;SDS011;12082;51.786;6.018;2022-08-19T05:23:32;45.30;;;25.77;;
23802;SDS011;12082;51.786;6.018;2022-08-19T05:25:58;61.80;;;31.43;;
23802;SDS011;12082;51.786;6.018;2022-08-19T05:28:23;73.80;;;36.10;;
23802;SDS011;12082;51.786;6.018;2022-08-19T05:30:49;69.00;;;34.40;;
23802;SDS011;12082;51.786;6.018;2022-08-19T05:33:16;64.03;;;31.33;;
23802;SDS011;12082;51.786;6.018;2022-08-19T05:35:42;60.90;;;30.13;;
23802;SDS011;12082;51.786;6.018;2022-08-19T05:38:09;60.50;;;29.93;;
23802;SDS011;12082;51.786;6.018;2022-08-19T05:40:36;51.13;;;29.50;;
23802;SDS011;12082;51.786;6.018;2022-08-19T05:43:04;58.77;;;29.03;;
23802;SDS011;12082;51.786;6.018;2022-08-19T05:45:31;51.90;;;28.87;;
23802;SDS011;12082;51.786;6.018;2022-08-19T05:47:57;84.60;;;41.13;;
23802;SDS011;12082;51.786;6.018;2022-08-19T05:50:23;87.93;;;41.63;;
23802;SDS011;12082;51.786;6.018;2022-08-19T05:52:51;87.07;;;41.40;;
23802;SDS011;12082;51.786;6.018;2022-08-19T05:55:17;91.23;;;42.10;;
23802;SDS011;12082;51.786;6.018;2022-08-19T05:57:45;84.77;;;40.07;;
23802;SDS011;12082;51.786;6.018;2022-08-19T06:00:11;70.53;;;38.80;;
23802;SDS011;12082;51.786;6.018;2022-08-19T06:02:38;69.97;;;37.37;;
23802;SDS011;12082;51.786;6.018;2022-08-19T06:05:05;65.20;;;36.13;;
23802;SDS011;12082;51.786;6.018;2022-08-19T06:07:34;69.37;;;36.87;;
23802;SDS011;12082;51.786;6.018;2022-08-19T06:10:00;61.60;;;36.47;;
23802;SDS011;12082;51.786;6.018;2022-08-19T06:12:27;67.73;;;36.10;;
23802;SDS011;12082;51.786;6.018;2022-08-19T06:14:56;65.33;;;36.20;;
23802;SDS011;12082;51.786;6.018;2022-08-19T06:17:22;62.43;;;34.37;;
23802;SDS011;12082;51.786;6.018;2022-08-19T06:19:50;57.67;;;33.80;;
23802;SDS011;12082;51.786;6.018;2022-08-19T06:22:15;65.83;;;33.87;;
23802;SDS011;12082;51.786;6.018;2022-08-19T06:24:41;56.53;;;34.07;;
23802;SDS011;12082;51.786;6.018;2022-08-19T06:27:07;52.40;;;33.77;;
23802;SDS011;12082;51.786;6.018;2022-08-19T06:29:33;53.40;;;32.57;;
23802;SDS011;12082;51.786;6.018;2022-08-19T06:32:00;48.50;;;31.77;;
23802;SDS011;12082;51.786;6.018;2022-08-19T06:34:28;45.70;;;31.67;;
23802;SDS011;12082;51.786;6.018;2022-08-19T06:36:56;43.10;;;28.50;;
23802;SDS011;12082;51.786;6.018;2022-08-19T06:39:25;40.90;;;29.43;;
23802;SDS011;12082;51.786;6.018;2022-08-19T06:41:53;45.93;;;28.67;;
23802;SDS011;12082;51.786;6.018;2022-08-19T06:44:22;39.20;;;27.30;;
23802;SDS011;12082;51.786;6.018;2022-08-19T06:46:50;45.27;;;29.60;;
23802;SDS011;12082;51.786;6.018;2022-08-19T06:49:17;49.47;;;31.73;;
23802;SDS011;12082;51.786;6.018;2022-08-19T06:51:43;41.27;;;27.67;;
23802;SDS011;12082;51.786;6.018;2022-08-19T06:54:12;51.70;;;33.63;;
23802;SDS011;12082;51.786;6.018;2022-08-19T06:56:37;59.17;;;35.27;;
23802;SDS011;12082;51.786;6.018;2022-08-19T06:59:07;54.40;;;33.90;;
23802;SDS011;12082;51.786;6.018;2022-08-19T07:01:42;59.30;;;34.10;;
23802;SDS011;12082;51.786;6.018;2022-08-19T07:04:18;62.33;;;34.67;;
23802;SDS011;12082;51.786;6.018;2022-08-19T07:06:46;65.57;;;37.63;;
23802;SDS011;12082;51.786;6.018;2022-08-19T07:09:12;67.57;;;37.77;;
23802;SDS011;12082;51.786;6.018;2022-08-19T07:11:46;65.27;;;36.73;;
23802;SDS011;12082;51.786;6.018;2022-08-19T07:14:14;62.77;;;35.57;;
23802;SDS011;12082;51.786;6.018;2022-08-19T07:16:42;67.23;;;37.80;;
23802;SDS011;12082;51.786;6.018;2022-08-19T07:19:10;63.60;;;36.80;;
23802;SDS011;12082;51.786;6.018;2022-08-19T07:21:36;62.07;;;36.20;;
23802;SDS011;12082;51.786;6.018;2022-08-19T07:24:02;69.27;;;36.60;;
23802;SDS011;12082;51.786;6.018;2022-08-19T07:26:33;59.97;;;34.47;;
23802;SDS011;12082;51.786;6.018;2022-08-19T07:29:03;49.33;;;32.90;;
23802;SDS011;12082;51.786;6.018;2022-08-19T07:31:30;47.23;;;30.27;;
23802;SDS011;12082;51.786;6.018;2022-08-19T07:34:01;50.37;;;31.03;;
23802;SDS011;12082;51.786;6.018;2022-08-19T07:36:32;50.97;;;30.57;;
23802;SDS011;12082;51.786;6.018;2022-08-19T07:38:59;52.73;;;30.60;;
23802;SDS011;12082;51.786;6.018;2022-08-19T07:41:29;49.87;;;30.03;;
23802;SDS011;12082;51.786;6.018;2022-08-19T07:43:56;43.30;;;28.83;;
23802;SDS011;12082;51.786;6.018;2022-08-19T07:46:23;44.63;;;28.37;;
23802;SDS011;12082;51.786;6.018;2022-08-19T07:48:49;45.77;;;29.07;;
23802;SDS011;12082;51.786;6.018;2022-08-19T07:51:19;50.97;;;30.43;;
23802;SDS011;12082;51.786;6.018;2022-08-19T07:53:46;43.83;;;28.97;;
23802;SDS011;12082;51.786;6.018;2022-08-19T07:56:13;42.97;;;27.77;;
23802;SDS011;12082;51.786;6.018;2022-08-19T07:58:40;40.83;;;26.53;;
23802;SDS011;12082;51.786;6.018;2022-08-19T08:01:08;41.20;;;28.20;;
23802;SDS011;12082;51.786;6.018;2022-08-19T08:03:40;40.97;;;26.30;;
23802;SDS011;12082;51.786;6.018;2022-08-19T08:06:24;40.73;;;27.67;;
23802;SDS011;12082;51.786;6.018;2022-08-19T08:09:09;39.37;;;26.13;;
23802;SDS011;12082;51.786;6.018;2022-08-19T08:11:36;40.17;;;27.23;;
23802;SDS011;12082;51.786;6.018;2022-08-19T08:14:03;38.53;;;26.27;;
23802;SDS011;12082;51.786;6.018;2022-08-19T08:16:29;39.50;;;25.13;;
23802;SDS011;12082;51.786;6.018;2022-08-19T08:18:58;39.33;;;24.97;;
23802;SDS011;12082;51.786;6.018;2022-08-19T08:21:24;39.93;;;24.40;;
23802;SDS011;12082;51.786;6.018;2022-08-19T08:23:49;41.57;;;25.80;;
23802;SDS011;12082;51.786;6.018;2022-08-19T08:26:16;41.03;;;26.60;;
23802;SDS011;12082;51.786;6.018;2022-08-19T08:28:42;41.50;;;24.63;;
23802;SDS011;12082;51.786;6.018;2022-08-19T08:31:08;37.93;;;24.47;;
23802;SDS011;12082;51.786;6.018;2022-08-19T08:33:34;36.70;;;23.57;;
23802;SDS011;12082;51.786;6.018;2022-08-19T08:36:00;36.20;;;22.67;;
23802;SDS011;12082;51.786;6.018;2022-08-19T08:38:32;30.37;;;23.20;;
23802;SDS011;12082;51.786;6.018;2022-08-19T08:41:04;32.33;;;21.90;;
23802;SDS011;12082;51.786;6.018;2022-08-19T08:43:52;32.70;;;20.57;;
23802;SDS011;12082;51.786;6.018;2022-08-19T08:46:27;30.40;;;21.67;;
23802;SDS011;12082;51.786;6.018;2022-08-19T08:51:38;33.27;;;21.00;;
23802;SDS011;12082;51.786;6.018;2022-08-19T08:54:09;26.47;;;18.13;;
23802;SDS011;12082;51.786;6.018;2022-08-19T08:56:38;26.37;;;18.60;;
23802;SDS011;12082;51.786;6.018;2022-08-19T08:59:07;27.33;;;19.13;;
23802;SDS011;12082;51.786;6.018;2022-08-19T09:01:45;28.03;;;18.53;;
23802;SDS011;12082;51.786;6.018;2022-08-19T09:04:10;29.53;;;18.73;;
23802;SDS011;12082;51.786;6.018;2022-08-19T09:06:48;26.40;;;17.10;;
23802;SDS011;12082;51.786;6.018;2022-08-19T09:09:35;25.17;;;17.43;;
23802;SDS011;12082;51.786;6.018;2022-08-19T09:15:05;28.67;;;18.93;;
23802;SDS011;12082;51.786;6.018;2022-08-19T09:17:33;29.87;;;19.13;;
23802;SDS011;12082;51.786;6.018;2022-08-19T09:20:01;30.97;;;18.33;;
23802;SDS011;12082;51.786;6.018;2022-08-19T09:22:32;26.13;;;17.57;;
23802;SDS011;12082;51.786;6.018;2022-08-19T09:24:59;30.30;;;16.73;;
23802;SDS011;12082;51.786;6.018;2022-08-19T09:27:25;27.50;;;17.90;;
23802;SDS011;12082;51.786;6.018;2022-08-19T09:29:52;24.13;;;15.30;;
23802;SDS011;12082;51.786;6.018;2022-08-19T09:32:19;23.77;;;16.57;;
23802;SDS011;12082;51.786;6.018;2022-08-19T09:34:45;22.83;;;14.20;;
23802;SDS011;12082;51.786;6.018;2022-08-19T09:37:11;25.40;;;15.43;;
23802;SDS011;12082;51.786;6.018;2022-08-19T09:39:37;24.53;;;13.93;;
23802;SDS011;12082;51.786;6.018;2022-08-19T09:42:05;19.53;;;13.33;;
23802;SDS011;12082;51.786;6.018;2022-08-19T09:44:36;26.80;;;14.17;;
23802;SDS011;12082;51.786;6.018;2022-08-19T09:47:02;21.37;;;14.30;;
23802;SDS011;12082;51.786;6.018;2022-08-19T09:49:29;20.07;;;12.77;;
23802;SDS011;12082;51.786;6.018;2022-08-19T09:51:56;25.63;;;15.80;;
23802;SDS011;12082;51.786;6.018;2022-08-19T09:54:21;24.00;;;15.70;;
23802;SDS011;12082;51.786;6.018;2022-08-19T09:56:48;25.80;;;15.23;;
23802;SDS011;12082;51.786;6.018;2022-08-19T09:59:14;27.37;;;15.67;;
23802;SDS011;12082;51.786;6.018;2022-08-19T10:01:39;24.83;;;16.07;;
23802;SDS011;12082;51.786;6.018;2022-08-19T10:04:05;27.43;;;15.27;;
23802;SDS011;12082;51.786;6.018;2022-08-19T10:06:34;26.90;;;17.60;;
23802;SDS011;12082;51.786;6.018;2022-08-19T10:09:02;25.33;;;13.70;;
23802;SDS011;12082;51.786;6.018;2022-08-19T10:11:31;27.03;;;16.30;;
23802;SDS011;12082;51.786;6.018;2022-08-19T10:13:58;25.30;;;17.43;;
23802;SDS011;12082;51.786;6.018;2022-08-19T10:16:24;33.37;;;18.93;;
23802;SDS011;12082;51.786;6.018;2022-08-19T10:18:51;31.87;;;20.17;;
23802;SDS011;12082;51.786;6.018;2022-08-19T10:21:20;32.53;;;21.77;;
23802;SDS011;12082;51.786;6.018;2022-08-19T10:23:48;37.73;;;21.17;;
23802;SDS011;12082;51.786;6.018;2022-08-19T10:26:17;34.70;;;20.43;;
23802;SDS011;12082;51.786;6.018;2022-08-19T10:28:45;35.93;;;21.87;;
23802;SDS011;12082;51.786;6.018;2022-08-19T10:31:12;35.63;;;19.37;;
23802;SDS011;12082;51.786;6.018;2022-08-19T10:33:40;33.20;;;20.50;;
23802;SDS011;12082;51.786;6.018;2022-08-19T10:36:10;36.17;;;20.70;;
23802;SDS011;12082;51.786;6.018;2022-08-19T10:38:40;30.37;;;19.40;;
23802;SDS011;12082;51.786;6.018;2022-08-19T10:41:16;33.27;;;20.97;;
23802;SDS011;12082;51.786;6.018;2022-08-19T10:43:43;33.50;;;22.13;;
23802;SDS011;12082;51.786;6.018;2022-08-19T10:46:12;34.93;;;20.23;;
23802;SDS011;12082;51.786;6.018;2022-08-19T10:48:40;33.53;;;19.47;;
23802;SDS011;12082;51.786;6.018;2022-08-19T10:51:06;32.93;;;19.53;;
23802;SDS011;12082;51.786;6.018;2022-08-19T10:53:50;34.67;;;20.63;;
23802;SDS011;12082;51.786;6.018;2022-08-19T10:56:17;26.80;;;19.90;;
23802;SDS011;12082;51.786;6.018;2022-08-19T10:59:02;32.77;;;19.87;;
23802;SDS011;12082;51.786;6.018;2022-08-19T11:01:28;29.43;;;19.27;;
23802;SDS011;12082;51.786;6.018;2022-08-19T11:03:55;34.60;;;19.90;;
23802;SDS011;12082;51.786;6.018;2022-08-19T11:06:23;30.67;;;21.73;;
23802;SDS011;12082;51.786;6.018;2022-08-19T11:08:50;27.23;;;19.10;;
23802;SDS011;12082;51.786;6.018;2022-08-19T11:11:16;29.93;;;19.73;;
23802;SDS011;12082;51.786;6.018;2022-08-19T11:13:42;28.63;;;18.77;;
23802;SDS011;12082;51.786;6.018;2022-08-19T11:18:38;26.70;;;19.40;;
23802;SDS011;12082;51.786;6.018;2022-08-19T11:21:12;31.87;;;20.43;;
23802;SDS011;12082;51.786;6.018;2022-08-19T11:23:44;30.53;;;18.50;;
23802;SDS011;12082;51.786;6.018;2022-08-19T11:26:14;24.07;;;18.43;;
23802;SDS011;12082;51.786;6.018;2022-08-19T11:28:41;31.87;;;18.03;;
23802;SDS011;12082;51.786;6.018;2022-08-19T11:31:15;27.33;;;18.67;;
23802;SDS011;12082;51.786;6.018;2022-08-19T11:33:43;25.63;;;17.90;;
23802;SDS011;12082;51.786;6.018;2022-08-19T11:36:09;30.17;;;18.93;;
23802;SDS011;12082;51.786;6.018;2022-08-19T11:38:36;27.37;;;19.20;;
23802;SDS011;12082;51.786;6.018;2022-08-19T11:41:03;32.80;;;18.40;;
23802;SDS011;12082;51.786;6.018;2022-08-19T11:43:31;31.47;;;18.57;;
23802;SDS011;12082;51.786;6.018;2022-08-19T11:45:57;30.80;;;16.80;;
23802;SDS011;12082;51.786;6.018;2022-08-19T11:48:24;29.57;;;17.03;;
23802;SDS011;12082;51.786;6.018;2022-08-19T11:50:50;21.87;;;16.77;;
23802;SDS011;12082;51.786;6.018;2022-08-19T11:53:18;27.37;;;18.30;;
23802;SDS011;12082;51.786;6.018;2022-08-19T11:55:45;28.33;;;18.57;;
23802;SDS011;12082;51.786;6.018;2022-08-19T11:58:12;29.83;;;18.13;;
23802;SDS011;12082;51.786;6.018;2022-08-19T12:00:40;29.00;;;18.53;;
23802;SDS011;12082;51.786;6.018;2022-08-19T12:03:06;28.83;;;16.57;;
23802;SDS011;12082;51.786;6.018;2022-08-19T12:05:33;28.43;;;16.50;;
23802;SDS011;12082;51.786;6.018;2022-08-19T12:08:01;26.80;;;14.03;;
23802;SDS011;12082;51.786;6.018;2022-08-19T12:10:26;18.83;;;12.90;;
23802;SDS011;12082;51.786;6.018;2022-08-19T12:12:52;20.53;;;14.13;;
23802;SDS011;12082;51.786;6.018;2022-08-19T12:15:18;24.40;;;13.87;;
23802;SDS011;12082;51.786;6.018;2022-08-19T12:17:43;24.03;;;14.47;;
23802;SDS011;12082;51.786;6.018;2022-08-19T12:20:09;22.40;;;12.97;;
23802;SDS011;12082;51.786;6.018;2022-08-19T12:22:36;14.97;;;11.97;;
23802;SDS011;12082;51.786;6.018;2022-08-19T12:25:03;17.23;;;13.57;;
23802;SDS011;12082;51.786;6.018;2022-08-19T12:27:30;20.80;;;13.07;;
23802;SDS011;12082;51.786;6.018;2022-08-19T12:29:55;19.63;;;13.80;;
23802;SDS011;12082;51.786;6.018;2022-08-19T12:32:22;23.33;;;15.10;;
23802;SDS011;12082;51.786;6.018;2022-08-19T12:34:49;20.60;;;13.33;;
23802;SDS011;12082;51.786;6.018;2022-08-19T12:37:15;17.70;;;12.50;;
23802;SDS011;12082;51.786;6.018;2022-08-19T12:39:41;16.33;;;13.43;;
23802;SDS011;12082;51.786;6.018;2022-08-19T12:42:09;20.27;;;13.80;;
23802;SDS011;12082;51.786;6.018;2022-08-19T12:44:36;22.83;;;13.93;;
23802;SDS011;12082;51.786;6.018;2022-08-19T12:47:04;20.27;;;13.67;;
23802;SDS011;12082;51.786;6.018;2022-08-19T12:49:32;17.50;;;11.70;;
23802;SDS011;12082;51.786;6.018;2022-08-19T12:52:01;20.10;;;13.73;;
23802;SDS011;12082;51.786;6.018;2022-08-19T12:54:28;23.03;;;14.77;;
23802;SDS011;12082;51.786;6.018;2022-08-19T12:56:55;18.37;;;12.67;;
23802;SDS011;12082;51.786;6.018;2022-08-19T12:59:22;21.67;;;12.97;;
23802;SDS011;12082;51.786;6.018;2022-08-19T13:01:48;22.17;;;14.47;;
23802;SDS011;12082;51.786;6.018;2022-08-19T13:04:13;20.13;;;14.27;;
23802;SDS011;12082;51.786;6.018;2022-08-19T13:06:40;20.23;;;14.07;;
23802;SDS011;12082;51.786;6.018;2022-08-19T13:09:07;20.10;;;14.50;;
23802;SDS011;12082;51.786;6.018;2022-08-19T13:11:33;21.60;;;14.23;;
23802;SDS011;12082;51.786;6.018;2022-08-19T13:14:00;27.60;;;20.17;;
23802;SDS011;12082;51.786;6.018;2022-08-19T13:16:26;15.67;;;10.97;;
23802;SDS011;12082;51.786;6.018;2022-08-19T13:18:53;23.87;;;14.53;;
23802;SDS011;12082;51.786;6.018;2022-08-19T13:21:21;19.37;;;13.00;;
23802;SDS011;12082;51.786;6.018;2022-08-19T13:23:48;24.17;;;14.53;;
23802;SDS011;12082;51.786;6.018;2022-08-19T13:26:15;23.40;;;16.10;;
23802;SDS011;12082;51.786;6.018;2022-08-19T13:28:41;23.97;;;15.60;;
23802;SDS011;12082;51.786;6.018;2022-08-19T13:31:28;23.07;;;15.93;;
23802;SDS011;12082;51.786;6.018;2022-08-19T13:34:15;19.80;;;14.93;;
23802;SDS011;12082;51.786;6.018;2022-08-19T13:36:41;19.43;;;14.77;;
23802;SDS011;12082;51.786;6.018;2022-08-19T13:39:08;23.10;;;14.13;;
23802;SDS011;12082;51.786;6.018;2022-08-19T13:41:34;21.83;;;13.67;;
23802;SDS011;12082;51.786;6.018;2022-08-19T13:44:01;18.10;;;12.60;;
23802;SDS011;12082;51.786;6.018;2022-08-19T13:46:27;21.53;;;13.40;;
23802;SDS011;12082;51.786;6.018;2022-08-19T13:48:54;21.87;;;12.80;;
23802;SDS011;12082;51.786;6.018;2022-08-19T13:51:19;28.87;;;15.87;;
23802;SDS011;12082;51.786;6.018;2022-08-19T13:53:45;19.93;;;14.97;;
23802;SDS011;12082;51.786;6.018;2022-08-19T13:56:13;22.57;;;14.10;;
23802;SDS011;12082;51.786;6.018;2022-08-19T13:58:41;17.10;;;12.90;;
23802;SDS011;12082;51.786;6.018;2022-08-19T14:01:07;15.10;;;12.20;;
23802;SDS011;12082;51.786;6.018;2022-08-19T14:03:33;20.93;;;14.50;;
23802;SDS011;12082;51.786;6.018;2022-08-19T14:06:00;24.93;;;16.30;;
23802;SDS011;12082;51.786;6.018;2022-08-19T14:08:27;24.07;;;15.30;;
23802;SDS011;12082;51.786;6.018;2022-08-19T14:10:54;23.30;;;15.70;;
23802;SDS011;12082;51.786;6.018;2022-08-19T14:13:21;21.70;;;16.00;;
23802;SDS011;12082;51.786;6.018;2022-08-19T14:15:48;19.73;;;14.80;;
23802;SDS011;12082;51.786;6.018;2022-08-19T14:18:15;23.53;;;15.27;;
23802;SDS011;12082;51.786;6.018;2022-08-19T14:20:42;21.83;;;14.17;;
23802;SDS011;12082;51.786;6.018;2022-08-19T14:23:08;20.23;;;15.07;;
23802;SDS011;12082;51.786;6.018;2022-08-19T14:25:34;17.33;;;12.03;;
23802;SDS011;12082;51.786;6.018;2022-08-19T14:28:00;17.77;;;13.43;;
23802;SDS011;12082;51.786;6.018;2022-08-19T14:30:31;22.67;;;15.23;;
23802;SDS011;12082;51.786;6.018;2022-08-19T14:32:59;26.37;;;14.93;;
23802;SDS011;12082;51.786;6.018;2022-08-19T14:35:27;23.47;;;14.43;;
23802;SDS011;12082;51.786;6.018;2022-08-19T14:37:54;18.83;;;13.23;;
23802;SDS011;12082;51.786;6.018;2022-08-19T14:40:20;23.37;;;14.47;;